sensor_id;sensor_type;location;lat;lon;timestamp;temperature;humidity
12060;DHT22;6091;51.432;6.880;2024-03-02T00:01:30;23.10;36.00
12060;DHT22;6091;51.432;6.880;2024-03-02T00:03:58;23.10;36.10
12060;DHT22;6091;51.432;6.880;2024-03-02T00:06:25;23.10;36.00
12060;DHT22;6091;51.432;6.880;2024-03-02T00:08:57;23.10;36.10
12060;DHT22;6091;51.432;6.880;2024-03-02T00:11:25;23.00;36.10
12060;DHT22;6091;51.432;6.880;2024-03-02T00:13:54;23.10;36.10
12060;DHT22;6091;51.432;6.880;2024-03-02T00:16:22;23.00;36.10
12060;DHT22;6091;51.432;6.880;2024-03-02T00:18:52;23.00;36.00
12060;DHT22;6091;51.432;6.880;2024-03-02T00:21:19;23.00;36.20
12060;DHT22;6091;51.432;6.880;2024-03-02T00:23:49;23.00;36.10
12060;DHT22;6091;51.432;6.880;2024-03-02T00:26:19;23.00;36.10
12060;DHT22;6091;51.432;6.880;2024-03-02T00:28:49;23.00;36.70
12060;DHT22;6091;51.432;6.880;2024-03-02T00:31:21;23.00;36.10
12060;DHT22;6091;51.432;6.880;2024-03-02T00:33:49;23.00;36.10
12060;DHT22;6091;51.432;6.880;2024-03-02T00:36:25;22.90;36.10
12060;DHT22;6091;51.432;6.880;2024-03-02T00:38:54;23.00;36.30
12060;DHT22;6091;51.432;6.880;2024-03-02T00:41:26;23.00;36.20
12060;DHT22;6091;51.432;6.880;2024-03-02T00:44:06;23.00;36.20
12060;DHT22;6091;51.432;6.880;2024-03-02T00:46:38;23.00;36.40
12060;DHT22;6091;51.432;6.880;2024-03-02T00:49:17;23.00;36.30
12060;DHT22;6091;51.432;6.880;2024-03-02T00:51:48;23.00;36.30
12060;DHT22;6091;51.432;6.880;2024-03-02T00:54:27;22.90;36.10
12060;DHT22;6091;51.432;6.880;2024-03-02T00:56:57;23.00;36.40
12060;DHT22;6091;51.432;6.880;2024-03-02T00:59:24;22.90;36.20
12060;DHT22;6091;51.432;6.880;2024-03-02T01:01:52;22.90;36.20
12060;DHT22;6091;51.432;6.880;2024-03-02T01:04:19;22.90;36.30
12060;DHT22;6091;51.432;6.880;2024-03-02T01:06:46;22.90;36.20
12060;DHT22;6091;51.432;6.880;2024-03-02T01:09:15;22.90;36.20
12060;DHT22;6091;51.432;6.880;2024-03-02T01:11:45;22.90;36.20
12060;DHT22;6091;51.432;6.880;2024-03-02T01:14:12;22.90;36.20
12060;DHT22;6091;51.432;6.880;2024-03-02T01:16:40;22.90;36.30
12060;DHT22;6091;51.432;6.880;2024-03-02T01:19:07;22.90;36.30
12060;DHT22;6091;51.432;6.880;2024-03-02T01:21:36;22.90;36.30
12060;DHT22;6091;51.432;6.880;2024-03-02T01:24:04;22.90;36.30
12060;DHT22;6091;51.432;6.880;2024-03-02T01:26:31;22.90;36.40
12060;DHT22;6091;51.432;6.880;2024-03-02T01:28:59;22.90;36.40
12060;DHT22;6091;51.432;6.880;2024-03-02T01:31:26;22.90;36.50
12060;DHT22;6091;51.432;6.880;2024-03-02T01:33:53;22.90;36.30
12060;DHT22;6091;51.432;6.880;2024-03-02T01:36:21;22.80;36.20
12060;DHT22;6091;51.432;6.880;2024-03-02T01:38:48;22.90;36.30
12060;DHT22;6091;51.432;6.880;2024-03-02T01:41:16;22.80;36.30
12060;DHT22;6091;51.432;6.880;2024-03-02T01:43:44;22.90;36.40
12060;DHT22;6091;51.432;6.880;2024-03-02T01:46:12;22.90;36.30
12060;DHT22;6091;51.432;6.880;2024-03-02T01:48:39;22.90;36.40
12060;DHT22;6091;51.432;6.880;2024-03-02T01:51:07;22.80;36.30
12060;DHT22;6091;51.432;6.880;2024-03-02T01:53:37;22.90;36.40
12060;DHT22;6091;51.432;6.880;2024-03-02T01:56:04;22.80;36.30
12060;DHT22;6091;51.432;6.880;2024-03-02T01:58:32;22.80;36.30
12060;DHT22;6091;51.432;6.880;2024-03-02T02:01:00;22.80;36.30
12060;DHT22;6091;51.432;6.880;2024-03-02T02:03:27;22.80;36.30
12060;DHT22;6091;51.432;6.880;2024-03-02T02:05:55;22.80;36.30
12060;DHT22;6091;51.432;6.880;2024-03-02T02:08:23;22.80;36.40
12060;DHT22;6091;51.432;6.880;2024-03-02T02:10:51;22.80;36.40
12060;DHT22;6091;51.432;6.880;2024-03-02T02:13:19;22.80;36.40
12060;DHT22;6091;51.432;6.880;2024-03-02T02:15:46;22.80;36.40
12060;DHT22;6091;51.432;6.880;2024-03-02T02:18:13;22.80;36.40
12060;DHT22;6091;51.432;6.880;2024-03-02T02:20:42;22.80;36.40
12060;DHT22;6091;51.432;6.880;2024-03-02T02:23:09;22.80;36.50
12060;DHT22;6091;51.432;6.880;2024-03-02T02:25:37;22.80;37.10
12060;DHT22;6091;51.432;6.880;2024-03-02T02:28:05;22.70;36.40
12060;DHT22;6091;51.432;6.880;2024-03-02T02:30:32;22.70;36.40
12060;DHT22;6091;51.432;6.880;2024-03-02T02:33:00;22.80;36.50
12060;DHT22;6091;51.432;6.880;2024-03-02T02:35:28;22.80;36.50
12060;DHT22;6091;51.432;6.880;2024-03-02T02:37:57;22.70;36.40
12060;DHT22;6091;51.432;6.880;2024-03-02T02:40:25;22.70;36.40
12060;DHT22;6091;51.432;6.880;2024-03-02T02:42:53;22.70;36.50
12060;DHT22;6091;51.432;6.880;2024-03-02T02:45:20;22.70;36.50
12060;DHT22;6091;51.432;6.880;2024-03-02T02:47:48;22.70;36.40
12060;DHT22;6091;51.432;6.880;2024-03-02T02:50:15;22.70;36.50
12060;DHT22;6091;51.432;6.880;2024-03-02T02:52:43;22.70;36.50
12060;DHT22;6091;51.432;6.880;2024-03-02T02:55:11;22.70;36.50
12060;DHT22;6091;51.432;6.880;2024-03-02T02:57:40;22.70;36.50
12060;DHT22;6091;51.432;6.880;2024-03-02T03:00:12;22.70;36.50
12060;DHT22;6091;51.432;6.880;2024-03-02T03:02:48;22.70;36.50
12060;DHT22;6091;51.432;6.880;2024-03-02T03:05:18;22.70;36.50
12060;DHT22;6091;51.432;6.880;2024-03-02T03:07:45;22.70;36.50
12060;DHT22;6091;51.432;6.880;2024-03-02T03:10:13;22.70;36.50
12060;DHT22;6091;51.432;6.880;2024-03-02T03:12:41;22.70;36.50
12060;DHT22;6091;51.432;6.880;2024-03-02T03:15:12;22.70;36.50
12060;DHT22;6091;51.432;6.880;2024-03-02T03:17:40;22.70;36.60
12060;DHT22;6091;51.432;6.880;2024-03-02T03:20:08;22.70;36.50
12060;DHT22;6091;51.432;6.880;2024-03-02T03:22:39;22.70;36.60
12060;DHT22;6091;51.432;6.880;2024-03-02T03:25:06;22.70;36.50
12060;DHT22;6091;51.432;6.880;2024-03-02T03:27:38;22.70;36.60
12060;DHT22;6091;51.432;6.880;2024-03-02T03:30:05;22.70;36.60
12060;DHT22;6091;51.432;6.880;2024-03-02T03:32:34;22.70;36.60
12060;DHT22;6091;51.432;6.880;2024-03-02T03:35:01;22.70;36.60
12060;DHT22;6091;51.432;6.880;2024-03-02T03:37:28;22.70;36.60
12060;DHT22;6091;51.432;6.880;2024-03-02T03:40:05;22.70;36.60
12060;DHT22;6091;51.432;6.880;2024-03-02T03:42:42;22.70;36.60
12060;DHT22;6091;51.432;6.880;2024-03-02T03:45:09;22.60;36.50
12060;DHT22;6091;51.432;6.880;2024-03-02T03:47:36;22.60;36.50
12060;DHT22;6091;51.432;6.880;2024-03-02T03:50:05;22.60;36.60
12060;DHT22;6091;51.432;6.880;2024-03-02T03:52:34;22.60;36.50
12060;DHT22;6091;51.432;6.880;2024-03-02T03:55:01;22.60;36.60
12060;DHT22;6091;51.432;6.880;2024-03-02T03:57:28;22.60;36.60
12060;DHT22;6091;51.432;6.880;2024-03-02T03:59:56;22.60;36.60
12060;DHT22;6091;51.432;6.880;2024-03-02T04:02:23;22.60;36.80
12060;DHT22;6091;51.432;6.880;2024-03-02T04:04:51;22.60;36.60
12060;DHT22;6091;51.432;6.880;2024-03-02T04:07:18;22.60;36.60
12060;DHT22;6091;51.432;6.880;2024-03-02T04:09:45;22.60;36.60
12060;DHT22;6091;51.432;6.880;2024-03-02T04:12:14;22.60;36.60
12060;DHT22;6091;51.432;6.880;2024-03-02T04:14:42;22.60;36.60
12060;DHT22;6091;51.432;6.880;2024-03-02T04:17:09;22.60;36.60
12060;DHT22;6091;51.432;6.880;2024-03-02T04:19:37;22.60;36.60
12060;DHT22;6091;51.432;6.880;2024-03-02T04:22:04;22.60;36.60
12060;DHT22;6091;51.432;6.880;2024-03-02T04:24:44;22.50;36.60
12060;DHT22;6091;51.432;6.880;2024-03-02T04:27:11;22.60;36.60
12060;DHT22;6091;51.432;6.880;2024-03-02T04:29:38;22.60;36.60
12060;DHT22;6091;51.432;6.880;2024-03-02T04:32:05;22.60;36.60
12060;DHT22;6091;51.432;6.880;2024-03-02T04:34:33;22.50;36.60
12060;DHT22;6091;51.432;6.880;2024-03-02T04:37:00;22.50;36.60
12060;DHT22;6091;51.432;6.880;2024-03-02T04:39:27;22.50;36.60
12060;DHT22;6091;51.432;6.880;2024-03-02T04:41:55;22.50;36.60
12060;DHT22;6091;51.432;6.880;2024-03-02T04:44:22;22.50;36.60
12060;DHT22;6091;51.432;6.880;2024-03-02T04:46:49;22.50;36.60
12060;DHT22;6091;51.432;6.880;2024-03-02T04:49:16;22.50;37.20
12060;DHT22;6091;51.432;6.880;2024-03-02T04:51:43;22.50;36.70
12060;DHT22;6091;51.432;6.880;2024-03-02T04:54:10;22.50;36.60
12060;DHT22;6091;51.432;6.880;2024-03-02T04:56:53;22.50;36.70
12060;DHT22;6091;51.432;6.880;2024-03-02T04:59:20;22.50;36.70
12060;DHT22;6091;51.432;6.880;2024-03-02T05:01:48;22.50;36.70
12060;DHT22;6091;51.432;6.880;2024-03-02T05:04:15;22.50;36.70
12060;DHT22;6091;51.432;6.880;2024-03-02T05:06:42;22.40;36.60
12060;DHT22;6091;51.432;6.880;2024-03-02T05:09:09;22.40;36.60
12060;DHT22;6091;51.432;6.880;2024-03-02T05:11:37;22.40;36.60
12060;DHT22;6091;51.432;6.880;2024-03-02T05:14:04;22.40;36.60
12060;DHT22;6091;51.432;6.880;2024-03-02T05:16:37;22.40;36.60
12060;DHT22;6091;51.432;6.880;2024-03-02T05:19:10;22.40;36.70
12060;DHT22;6091;51.432;6.880;2024-03-02T05:21:38;22.50;36.70
12060;DHT22;6091;51.432;6.880;2024-03-02T05:24:05;22.40;36.60
12060;DHT22;6091;51.432;6.880;2024-03-02T05:26:32;22.40;36.70
12060;DHT22;6091;51.432;6.880;2024-03-02T05:29:00;22.40;36.60
12060;DHT22;6091;51.432;6.880;2024-03-02T05:31:27;22.40;36.70
12060;DHT22;6091;51.432;6.880;2024-03-02T05:33:54;22.40;36.70
12060;DHT22;6091;51.432;6.880;2024-03-02T05:36:24;22.40;36.70
12060;DHT22;6091;51.432;6.880;2024-03-02T05:38:51;22.40;36.80
12060;DHT22;6091;51.432;6.880;2024-03-02T05:41:18;22.40;36.70
12060;DHT22;6091;51.432;6.880;2024-03-02T05:43:45;22.40;36.70
12060;DHT22;6091;51.432;6.880;2024-03-02T05:46:12;22.30;36.70
12060;DHT22;6091;51.432;6.880;2024-03-02T05:48:40;22.40;36.80
12060;DHT22;6091;51.432;6.880;2024-03-02T05:51:07;22.30;36.70
12060;DHT22;6091;51.432;6.880;2024-03-02T05:53:34;22.30;36.70
12060;DHT22;6091;51.432;6.880;2024-03-02T05:56:03;22.30;36.70
12060;DHT22;6091;51.432;6.880;2024-03-02T05:58:31;22.30;36.70
12060;DHT22;6091;51.432;6.880;2024-03-02T06:01:20;22.30;36.70
12060;DHT22;6091;51.432;6.880;2024-03-02T06:03:49;22.30;36.70
12060;DHT22;6091;51.432;6.880;2024-03-02T06:06:16;22.30;36.70
12060;DHT22;6091;51.432;6.880;2024-03-02T06:08:44;22.30;36.70
12060;DHT22;6091;51.432;6.880;2024-03-02T06:11:11;22.30;36.80
12060;DHT22;6091;51.432;6.880;2024-03-02T06:13:38;22.30;36.80
12060;DHT22;6091;51.432;6.880;2024-03-02T06:16:05;22.30;36.80
12060;DHT22;6091;51.432;6.880;2024-03-02T06:18:33;22.30;36.80
12060;DHT22;6091;51.432;6.880;2024-03-02T06:21:00;22.30;36.80
12060;DHT22;6091;51.432;6.880;2024-03-02T06:23:30;22.20;36.70
12060;DHT22;6091;51.432;6.880;2024-03-02T06:25:58;22.30;36.80
12060;DHT22;6091;51.432;6.880;2024-03-02T06:28:26;22.30;36.80
12060;DHT22;6091;51.432;6.880;2024-03-02T06:30:53;22.20;36.70
12060;DHT22;6091;51.432;6.880;2024-03-02T06:33:20;22.20;36.70
12060;DHT22;6091;51.432;6.880;2024-03-02T06:35:48;22.20;36.70
12060;DHT22;6091;51.432;6.880;2024-03-02T06:38:15;22.20;36.80
12060;DHT22;6091;51.432;6.880;2024-03-02T06:40:43;22.20;36.80
12060;DHT22;6091;51.432;6.880;2024-03-02T06:43:10;22.20;36.80
12060;DHT22;6091;51.432;6.880;2024-03-02T06:45:37;22.20;36.80
12060;DHT22;6091;51.432;6.880;2024-03-02T06:48:04;22.20;36.80
12060;DHT22;6091;51.432;6.880;2024-03-02T06:50:32;22.20;36.80
12060;DHT22;6091;51.432;6.880;2024-03-02T06:52:59;22.20;36.80
12060;DHT22;6091;51.432;6.880;2024-03-02T06:55:26;22.20;36.80
12060;DHT22;6091;51.432;6.880;2024-03-02T06:57:53;22.20;36.90
12060;DHT22;6091;51.432;6.880;2024-03-02T07:00:21;22.20;36.90
12060;DHT22;6091;51.432;6.880;2024-03-02T07:02:48;22.20;36.90
12060;DHT22;6091;51.432;6.880;2024-03-02T07:05:15;22.20;36.90
12060;DHT22;6091;51.432;6.880;2024-03-02T07:07:42;22.20;36.90
12060;DHT22;6091;51.432;6.880;2024-03-02T07:10:10;22.20;36.90
12060;DHT22;6091;51.432;6.880;2024-03-02T07:12:38;22.20;36.90
12060;DHT22;6091;51.432;6.880;2024-03-02T07:15:06;22.20;36.90
12060;DHT22;6091;51.432;6.880;2024-03-02T07:17:33;22.20;36.90
12060;DHT22;6091;51.432;6.880;2024-03-02T07:20:01;22.20;36.90
12060;DHT22;6091;51.432;6.880;2024-03-02T07:22:28;22.20;36.90
12060;DHT22;6091;51.432;6.880;2024-03-02T07:24:55;22.20;36.90
12060;DHT22;6091;51.432;6.880;2024-03-02T07:27:22;22.20;36.90
12060;DHT22;6091;51.432;6.880;2024-03-02T07:29:52;22.20;36.90
12060;DHT22;6091;51.432;6.880;2024-03-02T07:32:19;22.20;36.90
12060;DHT22;6091;51.432;6.880;2024-03-02T07:34:46;22.20;36.90
12060;DHT22;6091;51.432;6.880;2024-03-02T07:37:13;22.20;36.90
12060;DHT22;6091;51.432;6.880;2024-03-02T07:39:40;22.10;36.80
12060;DHT22;6091;51.432;6.880;2024-03-02T07:42:08;22.20;36.90
12060;DHT22;6091;51.432;6.880;2024-03-02T07:44:35;22.20;36.90
12060;DHT22;6091;51.432;6.880;2024-03-02T07:47:03;22.20;36.90
12060;DHT22;6091;51.432;6.880;2024-03-02T07:49:30;22.20;36.90
12060;DHT22;6091;51.432;6.880;2024-03-02T07:51:58;22.20;36.90
12060;DHT22;6091;51.432;6.880;2024-03-02T07:54:25;22.20;36.90
12060;DHT22;6091;51.432;6.880;2024-03-02T07:56:52;22.20;36.90
12060;DHT22;6091;51.432;6.880;2024-03-02T07:59:20;22.20;36.90
12060;DHT22;6091;51.432;6.880;2024-03-02T08:01:49;22.30;37.00
12060;DHT22;6091;51.432;6.880;2024-03-02T08:04:18;22.20;36.90
12060;DHT22;6091;51.432;6.880;2024-03-02T08:06:45;22.30;37.00
12060;DHT22;6091;51.432;6.880;2024-03-02T08:09:12;22.20;36.90
12060;DHT22;6091;51.432;6.880;2024-03-02T08:11:40;22.30;37.00
12060;DHT22;6091;51.432;6.880;2024-03-02T08:14:07;22.30;37.00
12060;DHT22;6091;51.432;6.880;2024-03-02T08:16:34;22.30;37.00
12060;DHT22;6091;51.432;6.880;2024-03-02T08:19:01;22.30;37.00
12060;DHT22;6091;51.432;6.880;2024-03-02T08:21:30;22.40;37.00
12060;DHT22;6091;51.432;6.880;2024-03-02T08:23:59;22.40;37.00
12060;DHT22;6091;51.432;6.880;2024-03-02T08:26:27;22.40;37.10
12060;DHT22;6091;51.432;6.880;2024-03-02T08:28:56;22.40;37.20
12060;DHT22;6091;51.432;6.880;2024-03-02T08:31:28;22.40;37.40
12060;DHT22;6091;51.432;6.880;2024-03-02T08:33:55;22.40;37.40
12060;DHT22;6091;51.432;6.880;2024-03-02T08:36:24;22.40;37.30
12060;DHT22;6091;51.432;6.880;2024-03-02T08:38:52;22.50;37.40
12060;DHT22;6091;51.432;6.880;2024-03-02T08:41:19;22.50;37.30
12060;DHT22;6091;51.432;6.880;2024-03-02T08:43:47;22.50;37.30
12060;DHT22;6091;51.432;6.880;2024-03-02T08:46:15;22.50;37.30
12060;DHT22;6091;51.432;6.880;2024-03-02T08:48:44;22.50;37.20
12060;DHT22;6091;51.432;6.880;2024-03-02T08:51:11;22.50;37.20
12060;DHT22;6091;51.432;6.880;2024-03-02T08:53:39;22.50;37.20
12060;DHT22;6091;51.432;6.880;2024-03-02T08:56:08;22.50;37.20
12060;DHT22;6091;51.432;6.880;2024-03-02T08:58:35;22.50;37.20
12060;DHT22;6091;51.432;6.880;2024-03-02T09:01:03;22.60;37.20
12060;DHT22;6091;51.432;6.880;2024-03-02T09:03:31;24.50;38.70
12060;DHT22;6091;51.432;6.880;2024-03-02T09:06:00;22.60;37.20
12060;DHT22;6091;51.432;6.880;2024-03-02T09:08:28;22.60;37.30
12060;DHT22;6091;51.432;6.880;2024-03-02T09:10:56;22.60;37.30
12060;DHT22;6091;51.432;6.880;2024-03-02T09:13:24;22.60;37.30
12060;DHT22;6091;51.432;6.880;2024-03-02T09:15:51;22.70;37.50
12060;DHT22;6091;51.432;6.880;2024-03-02T09:18:18;22.70;37.50
12060;DHT22;6091;51.432;6.880;2024-03-02T09:20:46;22.70;37.50
12060;DHT22;6091;51.432;6.880;2024-03-02T09:23:13;22.70;37.50
12060;DHT22;6091;51.432;6.880;2024-03-02T09:25:40;22.70;37.60
12060;DHT22;6091;51.432;6.880;2024-03-02T09:28:07;22.80;37.60
12060;DHT22;6091;51.432;6.880;2024-03-02T09:30:36;22.80;37.70
12060;DHT22;6091;51.432;6.880;2024-03-02T09:33:04;22.80;37.70
12060;DHT22;6091;51.432;6.880;2024-03-02T09:35:34;22.80;37.80
12060;DHT22;6091;51.432;6.880;2024-03-02T09:38:01;22.90;37.70
12060;DHT22;6091;51.432;6.880;2024-03-02T09:40:30;22.90;37.70
12060;DHT22;6091;51.432;6.880;2024-03-02T09:43:00;23.00;37.80
12060;DHT22;6091;51.432;6.880;2024-03-02T09:45:29;22.90;37.70
12060;DHT22;6091;51.432;6.880;2024-03-02T09:47:58;23.00;37.70
12060;DHT22;6091;51.432;6.880;2024-03-02T09:50:28;23.00;37.60
12060;DHT22;6091;51.432;6.880;2024-03-02T09:52:56;23.00;37.60
12060;DHT22;6091;51.432;6.880;2024-03-02T09:55:25;23.00;37.50
12060;DHT22;6091;51.432;6.880;2024-03-02T09:57:53;23.00;37.50
12060;DHT22;6091;51.432;6.880;2024-03-02T10:00:22;23.10;37.50
12060;DHT22;6091;51.432;6.880;2024-03-02T10:02:51;23.10;37.50
12060;DHT22;6091;51.432;6.880;2024-03-02T10:05:26;23.10;37.40
12060;DHT22;6091;51.432;6.880;2024-03-02T10:08:01;23.20;37.40
12060;DHT22;6091;51.432;6.880;2024-03-02T10:10:40;23.20;37.50
12060;DHT22;6091;51.432;6.880;2024-03-02T10:13:12;23.20;37.40
12060;DHT22;6091;51.432;6.880;2024-03-02T10:15:41;23.20;37.40
12060;DHT22;6091;51.432;6.880;2024-03-02T10:18:10;23.20;37.40
12060;DHT22;6091;51.432;6.880;2024-03-02T10:20:40;23.30;37.40
12060;DHT22;6091;51.432;6.880;2024-03-02T10:23:17;23.30;37.40
12060;DHT22;6091;51.432;6.880;2024-03-02T10:25:45;23.30;37.30
12060;DHT22;6091;51.432;6.880;2024-03-02T10:28:24;23.40;37.40
12060;DHT22;6091;51.432;6.880;2024-03-02T10:30:52;23.40;37.40
12060;DHT22;6091;51.432;6.880;2024-03-02T10:33:20;23.50;37.40
12060;DHT22;6091;51.432;6.880;2024-03-02T10:35:51;23.60;37.30
12060;DHT22;6091;51.432;6.880;2024-03-02T10:38:19;23.60;37.20
12060;DHT22;6091;51.432;6.880;2024-03-02T10:40:47;23.60;37.20
12060;DHT22;6091;51.432;6.880;2024-03-02T10:43:20;23.70;37.30
12060;DHT22;6091;51.432;6.880;2024-03-02T10:45:49;23.70;37.30
12060;DHT22;6091;51.432;6.880;2024-03-02T10:48:18;23.70;37.20
12060;DHT22;6091;51.432;6.880;2024-03-02T10:50:48;23.70;37.10
12060;DHT22;6091;51.432;6.880;2024-03-02T10:53:16;23.80;37.20
12060;DHT22;6091;51.432;6.880;2024-03-02T10:55:46;23.80;37.20
12060;DHT22;6091;51.432;6.880;2024-03-02T10:58:21;23.80;37.10
12060;DHT22;6091;51.432;6.880;2024-03-02T11:00:49;23.80;37.10
12060;DHT22;6091;51.432;6.880;2024-03-02T11:03:18;23.90;37.20
12060;DHT22;6091;51.432;6.880;2024-03-02T11:05:48;23.90;37.20
12060;DHT22;6091;51.432;6.880;2024-03-02T11:08:18;24.00;37.30
12060;DHT22;6091;51.432;6.880;2024-03-02T11:10:51;24.10;37.40
12060;DHT22;6091;51.432;6.880;2024-03-02T11:13:31;24.10;37.30
12060;DHT22;6091;51.432;6.880;2024-03-02T11:16:12;24.20;37.10
12060;DHT22;6091;51.432;6.880;2024-03-02T11:18:54;24.40;37.30
12060;DHT22;6091;51.432;6.880;2024-03-02T11:21:21;24.50;37.30
12060;DHT22;6091;51.432;6.880;2024-03-02T11:23:51;24.60;37.30
12060;DHT22;6091;51.432;6.880;2024-03-02T11:26:20;24.70;37.20
12060;DHT22;6091;51.432;6.880;2024-03-02T11:28:50;24.80;37.20
12060;DHT22;6091;51.432;6.880;2024-03-02T11:31:17;25.00;37.20
12060;DHT22;6091;51.432;6.880;2024-03-02T11:33:45;25.10;37.10
12060;DHT22;6091;51.432;6.880;2024-03-02T11:36:13;25.20;37.00
12060;DHT22;6091;51.432;6.880;2024-03-02T11:38:43;25.30;37.00
12060;DHT22;6091;51.432;6.880;2024-03-02T11:41:12;25.40;36.80
12060;DHT22;6091;51.432;6.880;2024-03-02T11:43:42;25.60;36.80
12060;DHT22;6091;51.432;6.880;2024-03-02T11:46:11;25.70;36.70
12060;DHT22;6091;51.432;6.880;2024-03-02T11:48:40;25.80;36.60
12060;DHT22;6091;51.432;6.880;2024-03-02T11:51:09;26.00;36.60
12060;DHT22;6091;51.432;6.880;2024-03-02T11:53:39;26.00;36.50
12060;DHT22;6091;51.432;6.880;2024-03-02T11:56:09;26.10;36.30
12060;DHT22;6091;51.432;6.880;2024-03-02T11:58:40;26.30;36.80
12060;DHT22;6091;51.432;6.880;2024-03-02T12:01:10;26.30;36.10
12060;DHT22;6091;51.432;6.880;2024-03-02T12:03:40;26.40;36.00
12060;DHT22;6091;51.432;6.880;2024-03-02T12:06:08;26.60;36.00
12060;DHT22;6091;51.432;6.880;2024-03-02T12:08:36;26.60;35.90
12060;DHT22;6091;51.432;6.880;2024-03-02T12:11:04;26.70;35.80
12060;DHT22;6091;51.432;6.880;2024-03-02T12:13:33;26.80;35.80
12060;DHT22;6091;51.432;6.880;2024-03-02T12:16:01;26.80;35.60
12060;DHT22;6091;51.432;6.880;2024-03-02T12:18:29;27.00;35.60
12060;DHT22;6091;51.432;6.880;2024-03-02T12:20:57;27.00;35.50
12060;DHT22;6091;51.432;6.880;2024-03-02T12:23:26;27.10;35.40
12060;DHT22;6091;51.432;6.880;2024-03-02T12:25:54;27.10;35.30
12060;DHT22;6091;51.432;6.880;2024-03-02T12:28:21;27.20;35.20
12060;DHT22;6091;51.432;6.880;2024-03-02T12:30:49;27.30;35.20
12060;DHT22;6091;51.432;6.880;2024-03-02T12:33:17;27.30;35.00
12060;DHT22;6091;51.432;6.880;2024-03-02T12:35:44;27.30;34.80
12060;DHT22;6091;51.432;6.880;2024-03-02T12:38:12;27.30;34.70
12060;DHT22;6091;51.432;6.880;2024-03-02T12:40:40;27.30;34.60
12060;DHT22;6091;51.432;6.880;2024-03-02T12:43:07;27.20;34.40
12060;DHT22;6091;51.432;6.880;2024-03-02T12:45:35;27.10;34.40
12060;DHT22;6091;51.432;6.880;2024-03-02T12:48:04;27.10;34.30
12060;DHT22;6091;51.432;6.880;2024-03-02T12:50:33;27.00;34.20
12060;DHT22;6091;51.432;6.880;2024-03-02T12:53:01;26.90;34.20
12060;DHT22;6091;51.432;6.880;2024-03-02T12:55:28;26.90;34.20
12060;DHT22;6091;51.432;6.880;2024-03-02T12:57:57;26.80;34.10
12060;DHT22;6091;51.432;6.880;2024-03-02T13:00:26;26.80;34.10
12060;DHT22;6091;51.432;6.880;2024-03-02T13:02:54;26.60;34.00
12060;DHT22;6091;51.432;6.880;2024-03-02T13:05:32;26.60;34.10
12060;DHT22;6091;51.432;6.880;2024-03-02T13:08:00;26.60;34.00
12060;DHT22;6091;51.432;6.880;2024-03-02T13:10:31;26.50;34.10
12060;DHT22;6091;51.432;6.880;2024-03-02T13:13:01;26.40;33.90
12060;DHT22;6091;51.432;6.880;2024-03-02T13:15:28;26.40;33.90
12060;DHT22;6091;51.432;6.880;2024-03-02T13:17:59;26.40;34.10
12060;DHT22;6091;51.432;6.880;2024-03-02T13:20:31;26.30;33.90
12060;DHT22;6091;51.432;6.880;2024-03-02T13:22:59;26.30;34.00
12060;DHT22;6091;51.432;6.880;2024-03-02T13:25:27;26.20;34.00
12060;DHT22;6091;51.432;6.880;2024-03-02T13:27:56;26.20;34.00
12060;DHT22;6091;51.432;6.880;2024-03-02T13:30:24;26.10;34.00
12060;DHT22;6091;51.432;6.880;2024-03-02T13:32:51;25.80;33.90
12060;DHT22;6091;51.432;6.880;2024-03-02T13:35:20;25.80;34.20
12060;DHT22;6091;51.432;6.880;2024-03-02T13:37:47;25.80;34.20
12060;DHT22;6091;51.432;6.880;2024-03-02T13:40:17;25.80;34.10
12060;DHT22;6091;51.432;6.880;2024-03-02T13:42:47;25.80;34.10
12060;DHT22;6091;51.432;6.880;2024-03-02T13:45:16;25.80;34.10
12060;DHT22;6091;51.432;6.880;2024-03-02T13:47:45;25.80;34.20
12060;DHT22;6091;51.432;6.880;2024-03-02T13:50:13;25.70;34.20
12060;DHT22;6091;51.432;6.880;2024-03-02T13:52:40;25.70;34.20
12060;DHT22;6091;51.432;6.880;2024-03-02T13:55:09;25.60;34.20
12060;DHT22;6091;51.432;6.880;2024-03-02T13:57:37;25.60;34.20
12060;DHT22;6091;51.432;6.880;2024-03-02T14:00:07;25.60;34.30
12060;DHT22;6091;51.432;6.880;2024-03-02T14:02:39;25.50;34.30
12060;DHT22;6091;51.432;6.880;2024-03-02T14:05:06;25.50;34.30
12060;DHT22;6091;51.432;6.880;2024-03-02T14:07:38;25.50;34.30
12060;DHT22;6091;51.432;6.880;2024-03-02T14:10:06;25.50;34.30
12060;DHT22;6091;51.432;6.880;2024-03-02T14:12:34;25.40;34.30
12060;DHT22;6091;51.432;6.880;2024-03-02T14:15:03;25.40;34.30
12060;DHT22;6091;51.432;6.880;2024-03-02T14:17:31;25.40;34.30
12060;DHT22;6091;51.432;6.880;2024-03-02T14:19:59;25.40;34.90
12060;DHT22;6091;51.432;6.880;2024-03-02T14:22:26;25.30;34.20
12060;DHT22;6091;51.432;6.880;2024-03-02T14:24:53;25.30;34.30
12060;DHT22;6091;51.432;6.880;2024-03-02T14:27:20;25.30;34.30
12060;DHT22;6091;51.432;6.880;2024-03-02T14:30:04;25.20;34.20
12060;DHT22;6091;51.432;6.880;2024-03-02T14:32:35;25.20;34.30
12060;DHT22;6091;51.432;6.880;2024-03-02T14:35:02;25.20;34.30
12060;DHT22;6091;51.432;6.880;2024-03-02T14:37:30;25.10;34.20
12060;DHT22;6091;51.432;6.880;2024-03-02T14:39:57;25.20;34.30
12060;DHT22;6091;51.432;6.880;2024-03-02T14:42:25;25.10;34.30
12060;DHT22;6091;51.432;6.880;2024-03-02T14:44:52;25.10;34.30
12060;DHT22;6091;51.432;6.880;2024-03-02T14:47:19;25.00;34.30
12060;DHT22;6091;51.432;6.880;2024-03-02T14:49:46;25.00;34.40
12060;DHT22;6091;51.432;6.880;2024-03-02T14:52:14;25.00;34.40
12060;DHT22;6091;51.432;6.880;2024-03-02T14:54:41;25.00;34.40
12060;DHT22;6091;51.432;6.880;2024-03-02T14:57:09;25.00;34.40
12060;DHT22;6091;51.432;6.880;2024-03-02T14:59:38;25.00;34.40
12060;DHT22;6091;51.432;6.880;2024-03-02T15:02:07;24.90;34.40
12060;DHT22;6091;51.432;6.880;2024-03-02T15:04:37;25.00;34.50
12060;DHT22;6091;51.432;6.880;2024-03-02T15:07:04;24.90;34.40
12060;DHT22;6091;51.432;6.880;2024-03-02T15:09:32;24.90;34.40
12060;DHT22;6091;51.432;6.880;2024-03-02T15:12:01;24.90;34.40
12060;DHT22;6091;51.432;6.880;2024-03-02T15:14:30;24.90;34.50
12060;DHT22;6091;51.432;6.880;2024-03-02T15:16:58;24.90;34.50
12060;DHT22;6091;51.432;6.880;2024-03-02T15:19:25;24.90;34.50
12060;DHT22;6091;51.432;6.880;2024-03-02T15:21:52;24.90;34.50
12060;DHT22;6091;51.432;6.880;2024-03-02T15:24:20;24.90;34.50
12060;DHT22;6091;51.432;6.880;2024-03-02T15:26:48;25.00;34.60
12060;DHT22;6091;51.432;6.880;2024-03-02T15:29:16;24.90;34.50
12060;DHT22;6091;51.432;6.880;2024-03-02T15:31:43;24.90;34.50
12060;DHT22;6091;51.432;6.880;2024-03-02T15:34:10;25.00;34.50
12060;DHT22;6091;51.432;6.880;2024-03-02T15:36:38;25.00;34.50
12060;DHT22;6091;51.432;6.880;2024-03-02T15:39:06;24.90;34.40
12060;DHT22;6091;51.432;6.880;2024-03-02T15:41:36;24.90;34.40
12060;DHT22;6091;51.432;6.880;2024-03-02T15:44:03;24.90;34.40
12060;DHT22;6091;51.432;6.880;2024-03-02T15:46:31;24.90;34.40
12060;DHT22;6091;51.432;6.880;2024-03-02T15:48:59;24.90;34.50
12060;DHT22;6091;51.432;6.880;2024-03-02T15:51:30;24.80;34.40
12060;DHT22;6091;51.432;6.880;2024-03-02T15:54:01;24.80;34.40